Time;durP1;ratioP1;P1;durP2;ratioP2;P2;SDS_P1;SDS_P2;PMS_P1;PMS_P2;Temp;Humidity;BMP_temperature;BMP_pressure;BME280_temperature;BME280_humidity;BME280_pressure;Samples;Min_cycle;Max_cycle;Signal;HPM_P1;HPM_P2
2021/10/23 00:07:41;;;;;;;0.20;0.20;;;7.20;93.80;6.00;102338.00;;;;31124084;28;21258;-72
2021/10/23 00:22:42;;;;;;;0.28;0.28;;;7.30;96.80;6.10;102363.00;;;;31125335;28;20069;-72
2021/10/23 00:37:43;;;;;;;0.20;0.20;;;6.60;96.50;6.00;102376.00;;;;31086651;28;20049;-72
2021/10/23 00:52:49;;;;;;;0.10;0.10;;;7.30;93.90;6.00;102368.00;;;;30989865;28;20799;-72
2021/10/23 01:07:51;;;;;;;0.20;0.20;;;7.20;93.80;5.90;102371.00;;;;30990847;28;20038;-72
2021/10/23 01:22:53;;;;;;;0.20;0.20;;;7.10;93.80;5.90;102354.00;;;;31111897;28;20053;-71
2021/10/23 01:37:56;;;;;;;0.20;0.20;;;6.90;97.00;5.70;102353.00;;;;31110583;28;20081;-72
2021/10/23 01:53:23;;;;;;;0.10;0.10;;;7.40;93.90;5.50;102328.00;;;;30984935;28;20112;-73
2021/10/23 02:08:24;;;;;;;0.20;0.20;;;6.70;93.80;5.20;102347.00;;;;31062727;28;20088;-73
2021/10/23 02:23:27;;;;;;;0.20;0.20;;;6.50;93.90;5.10;102344.00;;;;31107325;28;20098;-72
2021/10/23 02:38:29;;;;;;;0.20;0.20;;;6.30;93.80;5.00;102361.00;;;;31097998;28;20049;-72
2021/10/23 02:53:30;;;;;;;0.20;0.20;;;6.30;94.10;4.90;102373.00;;;;30999999;28;20104;-73
2021/10/23 03:08:31;;;;;;;0.20;0.20;;;6.10;94.40;4.80;102363.00;;;;31002219;28;20042;-72
2021/10/23 03:23:39;;;;;;;0.30;0.30;;;5.60;97.30;4.70;102387.00;;;;31000021;28;20053;-72
2021/10/23 03:38:52;;;;;;;0.20;0.20;;;6.10;95.70;4.60;102399.00;;;;30997117;28;20049;-72
2021/10/23 03:53:59;;;;;;;0.35;0.35;;;5.10;96.30;4.50;102424.00;;;;31004456;28;20679;-71
2021/10/23 04:09:00;;;;;;;0.25;0.25;;;5.80;94.00;4.40;102425.00;;;;31063771;28;20060;-72
2021/10/23 04:24:01;;;;;;;0.22;0.22;;;5.60;94.00;4.40;102417.00;;;;31007113;28;20042;-72
2021/10/23 04:39:05;;;;;;;0.20;0.20;;;5.90;94.70;4.80;102417.00;;;;31005225;28;20094;-72
2021/10/23 04:54:08;;;;;;;0.20;0.20;;;6.10;95.00;5.10;102434.00;;;;31136147;28;20106;-72
2021/10/23 05:09:11;;;;;;;0.30;0.30;;;6.50;95.40;5.30;102436.00;;;;31127302;28;20084;-72
2021/10/23 05:24:12;;;;;;;0.20;0.20;;;6.60;95.30;5.50;102452.00;;;;31039319;28;20103;-72
2021/10/23 05:39:15;;;;;;;0.20;0.20;;;6.70;95.30;5.60;102452.00;;;;30993201;28;20045;-72
2021/10/23 05:54:18;;;;;;;0.17;0.17;;;6.90;95.50;5.70;102471.00;;;;31033634;28;20046;-72
2021/10/23 06:25:43;;;;;;;0.20;0.20;;;7.00;95.50;5.80;102515.00;;;;31104064;28;20050;-73
2021/10/23 06:40:46;;;;;;;0.98;0.98;;;7.00;95.80;5.80;102522.00;;;;31109813;28;20456;-72
2021/10/23 06:55:48;;;;;;;0.20;0.20;;;7.10;95.20;6.00;102555.00;;;;31119317;28;20132;-73
2021/10/23 07:10:50;;;;;;;0.30;0.30;;;7.20;95.40;6.20;102565.00;;;;31144691;28;20523;-73
2021/10/23 07:25:58;;;;;;;0.22;0.22;;;7.60;95.40;6.50;102593.00;;;;31134139;28;20092;-73
2021/10/23 07:41:00;;;;;;;0.20;0.20;;;8.20;96.00;6.70;102616.00;;;;31006493;28;20670;-74
2021/10/23 07:56:07;;;;;;;0.20;0.20;;;8.00;95.30;6.90;102647.00;;;;31009196;28;20042;-72
2021/10/23 08:11:09;;;;;;;0.20;0.20;;;8.20;95.20;7.40;102654.00;;;;31004932;28;20053;-72
2021/10/23 08:26:10;;;;;;;0.10;0.10;;;8.70;94.80;7.70;102667.00;;;;31010721;28;20099;-72
2021/10/23 08:41:14;;;;;;;0.20;0.20;;;8.70;95.40;7.80;102675.00;;;;30999815;28;20038;-73
2021/10/23 08:56:19;;;;;;;0.20;0.20;;;8.90;94.80;8.00;102696.00;;;;31084246;28;20133;-71
2021/10/23 09:11:33;;;;;;;0.20;0.20;;;9.20;94.80;8.20;102698.00;;;;31136009;28;20716;-71
2021/10/23 09:26:36;;;;;;;0.20;0.20;;;9.40;94.90;8.40;102712.00;;;;31138906;28;20878;-71
2021/10/23 09:41:37;;;;;;;0.20;0.20;;;9.60;94.90;8.60;102716.00;;;;31124257;28;20045;-71
2021/10/23 09:56:49;;;;;;;0.10;0.10;;;9.60;94.60;8.70;102742.00;;;;31132512;28;20515;-71
2021/10/23 10:11:56;;;;;;;0.10;0.10;;;9.70;94.80;9.10;102726.00;;;;31125563;28;20628;-71
2021/10/23 10:27:09;;;;;;;0.20;0.20;;;10.10;95.20;9.60;102729.00;;;;31119427;28;20110;-71
2021/10/23 10:42:50;;;;;;;0.10;0.10;;;10.70;94.20;10.10;102736.00;;;;31000161;28;20152;-72
2021/10/23 10:58:06;;;;;;;0.20;0.20;;;11.40;93.70;10.70;102727.00;;;;31016643;28;20054;-71
2021/10/23 11:13:28;;;;;;;0.17;0.17;;;11.80;93.30;11.00;102742.00;;;;31013181;28;20050;-72
2021/10/23 11:28:29;;;;;;;0.10;0.10;;;12.10;93.20;11.40;102740.00;;;;31134952;28;20049;-71
2021/10/23 11:43:39;;;;;;;0.13;0.13;;;12.40;92.50;11.70;102716.00;;;;31135725;28;20063;-71
2021/10/23 11:58:46;;;;;;;0.30;0.30;;;12.60;92.10;12.00;102717.00;;;;31132770;28;20062;-70
2021/10/23 12:14:04;;;;;;;0.55;0.55;;;13.00;91.80;12.40;102717.00;;;;31135286;28;20069;-70
2021/10/23 12:29:45;;;;;;;0.10;0.10;;;13.30;90.20;12.50;102709.00;;;;31277970;28;20136;-70
2021/10/23 12:44:46;;;;;;;0.35;0.35;;;13.60;89.30;12.80;102713.00;;;;31252647;28;20029;-70
2021/10/23 12:59:48;;;;;;;0.23;0.23;;;13.70;86.30;13.00;102701.00;;;;31264867;28;20033;-71
2021/10/23 13:14:52;;;;;;;0.20;0.20;;;14.00;87.90;13.20;102702.00;;;;31259052;28;20296;-70
2021/10/23 13:30:00;;;;;;;0.80;0.80;;;14.00;87.90;13.40;102686.00;;;;31255701;28;20046;-71
2021/10/23 13:45:02;;;;;;;0.10;0.10;;;14.30;84.10;13.60;102680.00;;;;31256961;28;20052;-71
2021/10/23 14:00:30;;;;;;;0.10;0.10;;;14.40;83.20;13.60;102682.00;;;;31235570;28;20052;-70
2021/10/23 14:16:29;;;;;;;0.30;0.30;;;14.40;82.30;13.70;102674.00;;;;31276523;28;20051;-65
2021/10/23 14:31:31;;;;;;;0.57;0.57;;;14.40;82.40;13.60;102683.00;;;;31264241;28;20049;-65
2021/10/23 14:46:32;;;;;;;0.10;0.10;;;14.30;78.00;13.50;102678.00;;;;31279034;28;20063;-64
2021/10/23 15:01:38;;;;;;;0.10;0.10;;;14.30;78.50;13.30;102685.00;;;;31270387;28;21172;-64
2021/10/23 15:16:40;;;;;;;0.20;0.20;;;14.20;79.00;13.20;102685.00;;;;31271128;28;20069;-65
2021/10/23 15:31:42;;;;;;;0.10;0.10;;;14.00;76.10;13.10;102685.00;;;;31279694;28;20053;-65
2021/10/23 15:46:43;;;;;;;0.10;0.10;;;13.70;77.00;12.70;102690.00;;;;31242354;28;20053;-66
2021/10/23 16:01:45;;;;;;;0.10;0.10;;;13.60;77.40;12.40;102689.00;;;;31253357;28;20592;-66
2021/10/23 16:16:47;;;;;;;0.20;0.20;;;13.10;77.80;12.00;102696.00;;;;31270735;28;20037;-71
2021/10/23 16:31:49;;;;;;;0.10;0.10;;;12.80;80.00;11.50;102702.00;;;;31254096;28;20050;-71
2021/10/23 16:46:50;;;;;;;0.20;0.20;;;12.20;82.60;11.00;102701.00;;;;31271991;28;20093;-71
2021/10/23 17:01:52;;;;;;;0.20;0.20;;;12.10;84.30;10.40;102702.00;;;;31234110;28;20040;-70
2021/10/23 17:16:55;;;;;;;0.10;0.10;;;12.40;90.00;10.00;102702.00;;;;31227818;28;20045;-71
2021/10/23 17:32:06;;;;;;;0.10;0.10;;;10.80;86.70;9.70;102704.00;;;;31239564;28;20801;-72
2021/10/23 17:47:12;;;;;;;0.10;0.10;;;10.60;87.20;9.40;102714.00;;;;31253649;28;20950;-71
2021/10/23 18:02:18;;;;;;;0.20;0.20;;;10.30;87.70;9.20;102715.00;;;;31254167;28;20056;-71
2021/10/23 18:17:47;;;;;;;0.10;0.10;;;10.10;87.80;8.90;102726.00;;;;31252055;28;20053;-71
2021/10/23 18:32:51;;;;;;;0.30;0.30;;;10.10;91.10;8.80;102720.00;;;;31243878;28;20071;-71
2021/10/23 18:47:53;;;;;;;0.10;0.10;;;9.80;88.60;8.60;102713.00;;;;31250108;28;20149;-71
2021/10/23 19:02:58;;;;;;;0.20;0.20;;;9.60;89.80;8.40;102722.00;;;;31240518;28;20052;-71
2021/10/23 19:18:01;;;;;;;0.20;0.20;;;9.50;89.70;8.30;102712.00;;;;31269709;28;20070;-71
2021/10/23 19:33:04;;;;;;;0.20;0.20;;;9.90;90.00;8.20;102704.00;;;;31262476;28;20052;-71
2021/10/23 19:48:05;;;;;;;0.30;0.30;;;9.20;90.40;8.10;102699.00;;;;31269802;28;20091;-71
2021/10/23 20:03:06;;;;;;;0.13;0.13;;;9.10;90.60;8.00;102698.00;;;;31267199;28;20044;-71
2021/10/23 20:18:10;;;;;;;0.20;0.20;;;9.10;91.30;7.90;102698.00;;;;31263957;28;20388;-72
2021/10/23 20:33:17;;;;;;;0.10;0.10;;;8.90;91.60;7.80;102706.00;;;;31263500;28;20057;-72
2021/10/23 20:48:18;;;;;;;0.20;0.20;;;8.90;91.10;7.70;102694.00;;;;31242437;28;20555;-72
2021/10/23 21:03:19;;;;;;;0.20;0.20;;;9.00;91.50;7.60;102698.00;;;;31241234;28;20702;-72
2021/10/23 21:18:20;;;;;;;0.20;0.20;;;8.70;91.90;7.40;102694.00;;;;31249049;28;20073;-72
2021/10/23 21:33:21;;;;;;;0.20;0.20;;;8.70;91.30;7.30;102706.00;;;;31252406;28;20515;-71
2021/10/23 21:48:23;;;;;;;0.17;0.17;;;8.40;91.00;7.20;102701.00;;;;31246621;28;20075;-72
2021/10/23 22:03:24;;;;;;;0.20;0.20;;;8.30;91.40;7.10;102706.00;;;;31253922;28;20292;-72
2021/10/23 22:18:27;;;;;;;0.30;0.30;;;8.30;90.90;7.00;102693.00;;;;31253657;28;20041;-72
2021/10/23 22:33:29;;;;;;;0.20;0.20;;;8.20;91.30;6.90;102683.00;;;;31244097;28;20076;-73
2021/10/23 22:48:30;;;;;;;0.20;0.20;;;8.00;90.90;6.80;102664.00;;;;31250546;28;20054;-71
2021/10/23 23:03:31;;;;;;;0.28;0.28;;;7.90;90.90;6.70;102663.00;;;;31275440;28;20122;-72
2021/10/23 23:18:38;;;;;;;0.15;0.15;;;7.90;90.90;6.60;102661.00;;;;31265346;28;20603;-71
2021/10/23 23:33:40;;;;;;;0.20;0.20;;;7.80;90.70;6.50;102651.00;;;;31251629;28;20048;-72
2021/10/23 23:48:41;;;;;;;0.20;0.20;;;;;6.40;102652.00;;;;31260029;28;21123;-72
